createdAt,value
2023-02-07T00:00:41.198Z,-10.18
2023-02-07T00:03:44.723Z,-10.24
2023-02-07T00:06:47.512Z,-10.23
2023-02-07T00:09:50.954Z,-10.30
2023-02-07T00:12:54.116Z,-10.40
2023-02-07T00:15:56.957Z,-10.45
2023-02-07T00:19:00.464Z,-10.36
2023-02-07T00:22:03.920Z,-10.29
2023-02-07T00:25:06.862Z,-10.25
2023-02-07T00:28:12.794Z,-10.30
2023-02-07T00:31:19.466Z,-10.37
2023-02-07T00:34:22.311Z,-10.39
2023-02-07T00:37:25.046Z,-10.51
2023-02-07T00:40:28.780Z,-10.58
2023-02-07T00:43:31.975Z,-10.51
2023-02-07T00:46:35.929Z,-10.55
2023-02-07T00:49:38.765Z,-10.53
2023-02-07T00:52:44.514Z,-10.51
2023-02-07T00:55:47.442Z,-10.56
2023-02-07T00:58:51.076Z,-10.59
2023-02-07T01:01:53.979Z,-10.58
2023-02-07T01:04:56.968Z,-10.67
2023-02-07T01:07:59.967Z,-10.71
2023-02-07T01:11:09.276Z,-10.81
2023-02-07T01:14:13.093Z,-10.78
2023-02-07T01:17:18.859Z,-10.82
2023-02-07T01:20:25.162Z,-10.91
2023-02-07T01:23:28.010Z,-10.69
2023-02-07T01:26:30.961Z,-10.63
2023-02-07T01:29:37.051Z,-10.61
2023-02-07T01:32:43.035Z,-10.69
2023-02-07T01:35:47.339Z,-10.77
2023-02-07T01:38:52.403Z,-10.82
2023-02-07T01:41:55.273Z,-10.86
2023-02-07T01:45:16.902Z,-10.86
2023-02-07T01:48:31.816Z,-10.95
2023-02-07T01:51:35.650Z,-10.98
2023-02-07T01:54:38.835Z,-11.02
2023-02-07T01:57:41.920Z,-11.05
2023-02-07T02:00:45.506Z,-11.06
2023-02-07T02:03:50.057Z,-11.07
2023-02-07T02:06:53.351Z,-11.10
2023-02-07T02:09:56.189Z,-11.02
2023-02-07T02:13:06.543Z,-10.95
2023-02-07T02:16:15.486Z,-10.98
2023-02-07T02:20:06.313Z,-11.07
2023-02-07T02:23:20.977Z,-11.18
2023-02-07T02:26:35.068Z,-11.18
2023-02-07T02:29:49.041Z,-11.17
2023-02-07T02:33:10.406Z,-11.14
2023-02-07T02:36:35.163Z,-11.21
2023-02-07T02:40:17.141Z,-11.14
2023-02-07T02:43:36.139Z,-11.17
2023-02-07T02:46:40.458Z,-11.32
2023-02-07T02:49:44.795Z,-11.24
2023-02-07T02:52:50.903Z,-11.25
2023-02-07T02:56:15.822Z,-11.37
2023-02-07T02:59:49.754Z,-11.41
2023-02-07T03:03:16.100Z,-11.46
2023-02-07T03:06:34.097Z,-11.28
2023-02-07T03:10:09.185Z,-11.21
2023-02-07T03:13:16.360Z,-11.33
2023-02-07T03:16:34.340Z,-11.35
2023-02-07T03:19:50.255Z,-11.37
2023-02-07T03:22:53.852Z,-11.31
2023-02-07T03:25:58.792Z,-11.39
2023-02-07T03:29:04.086Z,-11.53
2023-02-07T03:32:11.323Z,-11.60
2023-02-07T03:35:26.329Z,-11.64
2023-02-07T03:38:29.255Z,-11.60
2023-02-07T03:41:42.685Z,-11.58
2023-02-07T03:44:45.859Z,-11.57
2023-02-07T03:47:49.437Z,-11.55
2023-02-07T03:50:53.196Z,-11.49
2023-02-07T03:53:59.369Z,-11.45
2023-02-07T03:57:02.734Z,-11.60
2023-02-07T04:00:07.314Z,-11.40
2023-02-07T04:03:18.794Z,-11.45
2023-02-07T04:06:23.211Z,-11.59
2023-02-07T04:09:28.829Z,-11.61
2023-02-07T04:12:34.584Z,-11.81
2023-02-07T04:15:38.401Z,-11.63
2023-02-07T04:18:41.548Z,-11.65
2023-02-07T04:21:48.166Z,-11.63
2023-02-07T04:24:51.021Z,-11.57
2023-02-07T04:27:56.887Z,-11.58
2023-02-07T04:30:59.865Z,-11.53
2023-02-07T04:34:02.690Z,-11.49
2023-02-07T04:37:05.659Z,-11.50
2023-02-07T04:40:08.883Z,-11.50
2023-02-07T04:43:23.640Z,-11.50
2023-02-07T04:46:30.524Z,-11.53
2023-02-07T04:49:34.559Z,-11.54
2023-02-07T04:52:37.905Z,-11.58
2023-02-07T04:55:40.910Z,-11.57
2023-02-07T04:58:44.133Z,-11.54
2023-02-07T05:01:47.466Z,-11.64
2023-02-07T05:04:50.383Z,-11.67
2023-02-07T05:07:53.349Z,-11.65
2023-02-07T05:11:02.479Z,-11.60
2023-02-07T05:14:05.333Z,-11.59
2023-02-07T05:17:12.002Z,-11.54
2023-02-07T05:20:14.937Z,-11.61
2023-02-07T05:23:18.355Z,-11.58
2023-02-07T05:26:21.214Z,-11.62
2023-02-07T05:29:24.238Z,-11.68
2023-02-07T05:32:45.583Z,-11.68
2023-02-07T05:35:48.579Z,-11.68
2023-02-07T05:38:54.568Z,-11.65
2023-02-07T05:41:57.298Z,-11.64
2023-02-07T05:45:00.251Z,-11.61
2023-02-07T05:48:09.176Z,-11.56
2023-02-07T05:51:12.985Z,-11.56
2023-02-07T05:54:18.765Z,-11.51
2023-02-07T05:57:21.589Z,-11.64
2023-02-07T06:00:24.640Z,-11.71
2023-02-07T06:03:33.730Z,-11.78
2023-02-07T06:06:39.493Z,-11.83
2023-02-07T06:09:45.239Z,-11.85
2023-02-07T06:12:48.049Z,-12.02
2023-02-07T06:15:50.913Z,-11.83
2023-02-07T06:18:56.962Z,-11.86
2023-02-07T06:22:02.748Z,-11.87
2023-02-07T06:25:05.871Z,-12.04
2023-02-07T06:28:09.157Z,-11.67
2023-02-07T06:31:13.004Z,-11.61
2023-02-07T06:34:19.115Z,-11.55
2023-02-07T06:37:21.831Z,-11.52
2023-02-07T06:40:25.366Z,-11.46
2023-02-07T06:43:28.134Z,-11.37
2023-02-07T06:46:31.526Z,-11.28
2023-02-07T06:49:35.059Z,-11.20
2023-02-07T06:52:37.970Z,-11.15
2023-02-07T06:55:41.019Z,-11.06
2023-02-07T06:58:53.329Z,-10.99
2023-02-07T07:02:00.763Z,-10.85
2023-02-07T07:05:04.140Z,-10.70
2023-02-07T07:08:07.679Z,-10.50
2023-02-07T07:11:10.575Z,-10.37
2023-02-07T07:14:13.396Z,-10.18
2023-02-07T07:17:19.355Z,-9.99
2023-02-07T07:20:23.529Z,-9.76
2023-02-07T07:23:27.073Z,-9.25
2023-02-07T07:26:47.861Z,-9.08
2023-02-07T07:29:54.987Z,-8.77
2023-02-07T07:32:57.759Z,-8.31
2023-02-07T07:36:01.763Z,-8.12
2023-02-07T07:39:05.466Z,-7.78
2023-02-07T07:42:08.397Z,-7.51
2023-02-07T07:45:11.267Z,-7.23
2023-02-07T07:48:17.407Z,-6.99
2023-02-07T07:51:20.471Z,-6.82
2023-02-07T07:54:23.622Z,-6.58
2023-02-07T07:57:32.788Z,-6.44
2023-02-07T08:00:39.430Z,-6.31
2023-02-07T08:03:42.424Z,-6.21
2023-02-07T08:06:46.079Z,-6.05
2023-02-07T08:09:48.904Z,-6.00
2023-02-07T08:12:51.769Z,-5.97
2023-02-07T08:15:55.503Z,-5.88
2023-02-07T08:18:58.367Z,-5.76
2023-02-07T08:22:01.217Z,-5.65
2023-02-07T08:25:13.445Z,-5.43
2023-02-07T08:28:20.188Z,-5.34
2023-02-07T08:31:23.467Z,-5.16
2023-02-07T08:34:29.131Z,-5.07
2023-02-07T08:37:31.994Z,-5.04
2023-02-07T08:40:35.536Z,-4.94
2023-02-07T08:43:39.502Z,-4.72
2023-02-07T08:46:42.870Z,-4.62
2023-02-07T08:49:45.795Z,-4.53
2023-02-07T08:52:48.600Z,-4.38
2023-02-07T08:55:52.193Z,-4.26
2023-02-07T08:58:55.048Z,-4.19
2023-02-07T09:02:07.757Z,-4.13
2023-02-07T09:05:12.538Z,-3.93
2023-02-07T09:08:15.567Z,-3.95
2023-02-07T09:11:18.788Z,-3.77
2023-02-07T09:14:22.355Z,-3.50
2023-02-07T09:17:25.333Z,-3.38
2023-02-07T09:20:29.854Z,-3.20
2023-02-07T09:23:37.209Z,-3.02
2023-02-07T09:26:45.862Z,-2.75
2023-02-07T09:29:49.222Z,-2.61
2023-02-07T09:32:53.449Z,-2.59
2023-02-07T09:35:59.469Z,-2.59
2023-02-07T09:39:03.950Z,-2.12
2023-02-07T09:42:43.721Z,-1.64
2023-02-07T09:45:49.283Z,-1.43
2023-02-07T09:49:18.452Z,-1.62
2023-02-07T09:52:31.772Z,-1.42
2023-02-07T09:55:50.460Z,-1.20
2023-02-07T09:59:24.180Z,-0.84
2023-02-07T10:02:34.964Z,-0.54
2023-02-07T10:05:46.352Z,-0.38
2023-02-07T10:08:52.750Z,-0.20
2023-02-07T10:12:28.801Z,-0.27
2023-02-07T10:15:43.382Z,0.05
2023-02-07T10:19:09.957Z,0.12
2023-02-07T10:22:42.069Z,0.63
2023-02-07T10:26:12.550Z,0.37
2023-02-07T10:29:26.367Z,0.82
2023-02-07T10:32:34.129Z,1.01
2023-02-07T10:35:37.555Z,1.13
2023-02-07T10:38:50.257Z,1.71
2023-02-07T10:42:00.220Z,2.15
2023-02-07T10:45:05.580Z,2.34
2023-02-07T10:48:20.070Z,2.09
2023-02-07T10:51:36.977Z,1.89
2023-02-07T10:54:54.762Z,2.45
2023-02-07T10:58:08.538Z,1.80
2023-02-07T11:01:24.195Z,3.01
2023-02-07T11:04:38.980Z,2.87
2023-02-07T11:07:47.940Z,2.80
2023-02-07T11:10:56.078Z,2.83
2023-02-07T11:14:05.446Z,2.29
2023-02-07T11:17:08.365Z,3.05
2023-02-07T11:20:21.443Z,3.23
2023-02-07T11:23:24.498Z,3.41
2023-02-07T11:26:32.072Z,2.73
2023-02-07T11:29:41.807Z,3.27
2023-02-07T11:32:58.143Z,3.36
2023-02-07T11:36:12.762Z,4.39
2023-02-07T11:39:19.798Z,4.65
2023-02-07T11:42:26.239Z,4.34
2023-02-07T11:45:34.713Z,3.22
2023-02-07T11:48:40.356Z,3.21
2023-02-07T11:51:46.478Z,4.26
2023-02-07T11:54:53.561Z,4.27
2023-02-07T11:58:07.696Z,4.62
2023-02-07T12:01:18.028Z,4.47
2023-02-07T12:04:28.059Z,3.60
2023-02-07T12:07:39.423Z,4.31
2023-02-07T12:10:46.298Z,4.72
2023-02-07T12:14:02.275Z,4.59
2023-02-07T12:17:10.148Z,4.17
2023-02-07T12:20:39.650Z,4.96
2023-02-07T12:24:01.177Z,4.82
2023-02-07T12:27:16.047Z,4.21
2023-02-07T12:30:39.785Z,5.88
2023-02-07T12:33:49.204Z,6.16
2023-02-07T12:36:56.921Z,6.52
2023-02-07T12:40:21.809Z,6.57
2023-02-07T12:43:27.702Z,7.02
2023-02-07T12:46:50.537Z,7.10
2023-02-07T12:50:02.500Z,7.68
2023-02-07T12:53:22.501Z,7.40
2023-02-07T12:56:36.394Z,7.22
2023-02-07T13:00:06.466Z,7.80
2023-02-07T13:03:42.547Z,7.51
2023-02-07T13:07:15.098Z,7.91
2023-02-07T13:10:41.512Z,8.49
2023-02-07T13:14:05.114Z,7.69
2023-02-07T13:17:32.926Z,7.96
2023-02-07T13:20:51.938Z,8.29
2023-02-07T13:24:01.487Z,7.81
2023-02-07T13:27:08.451Z,8.01
2023-02-07T13:30:17.096Z,8.61
2023-02-07T13:33:39.423Z,8.68
2023-02-07T13:36:49.444Z,8.19
2023-02-07T13:40:06.369Z,8.51
2023-02-07T13:43:21.246Z,8.25
2023-02-07T13:46:45.797Z,7.63
2023-02-07T13:50:12.643Z,7.65
2023-02-07T13:53:37.436Z,7.34
2023-02-07T13:57:15.043Z,7.09
2023-02-07T14:00:21.186Z,7.62
2023-02-07T14:03:33.255Z,7.86
2023-02-07T14:06:41.206Z,7.81
2023-02-07T14:09:48.511Z,8.05
2023-02-07T14:12:54.488Z,8.24
2023-02-07T14:16:01.626Z,7.20
2023-02-07T14:19:04.721Z,7.52
2023-02-07T14:22:30.492Z,8.09
2023-02-07T14:25:36.697Z,8.46
2023-02-07T14:28:39.874Z,8.87
2023-02-07T14:32:22.395Z,8.86
2023-02-07T14:35:28.132Z,7.95
2023-02-07T14:38:38.159Z,8.53
2023-02-07T14:41:43.350Z,8.62
2023-02-07T14:44:50.125Z,8.32
2023-02-07T14:47:53.094Z,8.31
2023-02-07T14:50:56.120Z,7.35
2023-02-07T14:54:23.950Z,7.65
2023-02-07T14:57:36.189Z,8.16
2023-02-07T15:00:45.402Z,8.32
2023-02-07T15:04:06.170Z,8.20
2023-02-07T15:07:13.493Z,8.10
2023-02-07T15:10:27.789Z,7.98
2023-02-07T15:13:34.379Z,7.87
2023-02-07T15:16:40.386Z,7.69
2023-02-07T15:19:43.218Z,6.87
2023-02-07T15:22:50.705Z,6.05
2023-02-07T15:25:53.696Z,5.40
2023-02-07T15:29:02.257Z,4.64
2023-02-07T15:32:24.497Z,3.87
2023-02-07T15:35:30.093Z,3.18
2023-02-07T15:38:33.428Z,2.49
2023-02-07T15:41:39.129Z,2.08
2023-02-07T15:44:56.562Z,1.73
2023-02-07T15:48:03.411Z,1.36
2023-02-07T15:51:11.265Z,0.97
2023-02-07T15:54:16.503Z,0.76
2023-02-07T15:57:26.483Z,0.45
2023-02-07T16:00:32.097Z,0.11
2023-02-07T16:03:37.870Z,-0.14
2023-02-07T16:06:55.194Z,-0.36
2023-02-07T16:10:24.039Z,-0.57
2023-02-07T16:13:26.881Z,-0.78
2023-02-07T16:16:36.187Z,-0.91
2023-02-07T16:19:46.441Z,-1.05
2023-02-07T16:22:50.187Z,-1.28
2023-02-07T16:25:53.374Z,-1.50
2023-02-07T16:28:56.644Z,-1.61
2023-02-07T16:31:59.800Z,-1.72
2023-02-07T16:35:02.817Z,-1.81
2023-02-07T16:38:06.437Z,-1.98
2023-02-07T16:41:33.137Z,-2.10
2023-02-07T16:44:37.275Z,-2.15
2023-02-07T16:47:40.050Z,-2.32
2023-02-07T16:50:43.377Z,-2.45
2023-02-07T16:53:46.116Z,-2.64
2023-02-07T16:56:51.755Z,-2.75
2023-02-07T16:59:54.476Z,-2.79
2023-02-07T17:02:58.377Z,-2.93
2023-02-07T17:06:01.272Z,-3.11
2023-02-07T17:09:04.718Z,-3.20
2023-02-07T17:12:09.220Z,-3.34
2023-02-07T17:15:12.382Z,-3.47
2023-02-07T17:18:15.279Z,-3.58
2023-02-07T17:21:18.442Z,-3.64
2023-02-07T17:24:21.457Z,-3.75
2023-02-07T17:27:24.409Z,-3.93
2023-02-07T17:30:38.860Z,-4.27
2023-02-07T17:33:41.890Z,-4.37
2023-02-07T17:36:47.769Z,-4.42
2023-02-07T17:39:54.417Z,-4.45
2023-02-07T17:42:57.862Z,-4.50
2023-02-07T17:46:01.999Z,-4.52
2023-02-07T17:49:06.538Z,-4.56
2023-02-07T17:52:15.476Z,-4.56
2023-02-07T17:55:21.552Z,-4.64
2023-02-07T17:58:24.912Z,-4.64
2023-02-07T18:01:28.310Z,-4.60
2023-02-07T18:04:31.419Z,-4.68
2023-02-07T18:07:34.119Z,-4.64
2023-02-07T18:10:39.694Z,-4.68
2023-02-07T18:13:46.109Z,-4.78
2023-02-07T18:16:49.436Z,-4.89
2023-02-07T18:19:52.610Z,-4.90
2023-02-07T18:22:57.223Z,-4.94
2023-02-07T18:26:00.952Z,-5.05
2023-02-07T18:29:04.092Z,-5.19
2023-02-07T18:32:08.297Z,-5.19
2023-02-07T18:35:12.113Z,-5.32
2023-02-07T18:38:15.838Z,-5.45
2023-02-07T18:41:23.598Z,-5.49
2023-02-07T18:44:27.033Z,-5.58
2023-02-07T18:47:31.985Z,-5.71
2023-02-07T18:50:35.433Z,-5.83
2023-02-07T18:53:39.538Z,-5.87
2023-02-07T18:56:42.861Z,-5.92
2023-02-07T18:59:45.691Z,-6.01
2023-02-07T19:02:49.240Z,-6.07
2023-02-07T19:05:57.671Z,-6.11
2023-02-07T19:09:03.787Z,-6.12
2023-02-07T19:12:09.243Z,-6.14
2023-02-07T19:15:13.062Z,-6.22
2023-02-07T19:18:16.340Z,-6.27
2023-02-07T19:21:24.070Z,-6.36
2023-02-07T19:24:27.960Z,-6.50
2023-02-07T19:27:30.845Z,-6.54
2023-02-07T19:30:34.252Z,-6.52
2023-02-07T19:33:37.295Z,-6.48
2023-02-07T19:36:41.429Z,-6.51
2023-02-07T19:39:46.367Z,-6.58
2023-02-07T19:42:49.745Z,-6.62
2023-02-07T19:45:53.887Z,-6.56
2023-02-07T19:48:58.943Z,-6.43
2023-02-07T19:52:01.940Z,-6.47
2023-02-07T19:55:05.308Z,-6.56
2023-02-07T19:58:08.689Z,-6.54
2023-02-07T20:01:12.718Z,-6.47
2023-02-07T20:04:15.832Z,-6.37
2023-02-07T20:07:19.083Z,-6.33
2023-02-07T20:10:22.567Z,-6.36
2023-02-07T20:13:25.669Z,-6.40
2023-02-07T20:16:31.662Z,-6.49
2023-02-07T20:19:35.874Z,-6.53
2023-02-07T20:22:39.003Z,-6.54
2023-02-07T20:25:42.354Z,-6.48
2023-02-07T20:28:46.486Z,-6.49
2023-02-07T20:31:50.175Z,-6.48
2023-02-07T20:34:53.388Z,-6.62
2023-02-07T20:37:57.196Z,-6.81
2023-02-07T20:41:08.987Z,-6.75
2023-02-07T20:44:14.991Z,-6.82
2023-02-07T20:47:18.039Z,-6.83
2023-02-07T20:50:22.360Z,-6.88
2023-02-07T20:53:25.504Z,-7.07
2023-02-07T20:56:29.017Z,-7.17
2023-02-07T20:59:33.051Z,-7.24
2023-02-07T21:02:37.149Z,-7.15
2023-02-07T21:05:40.116Z,-7.17
2023-02-07T21:08:43.305Z,-7.19
2023-02-07T21:11:49.203Z,-7.31
2023-02-07T21:14:52.213Z,-7.52
2023-02-07T21:17:54.984Z,-7.65
2023-02-07T21:20:58.225Z,-7.76
2023-02-07T21:24:01.401Z,-7.74
2023-02-07T21:27:05.356Z,-7.78
2023-02-07T21:30:09.013Z,-7.79
2023-02-07T21:33:15.568Z,-7.78
2023-02-07T21:36:25.810Z,-7.94
2023-02-07T21:39:28.871Z,-8.07
2023-02-07T21:42:32.172Z,-8.05
2023-02-07T21:45:35.220Z,-8.02
2023-02-07T21:48:39.453Z,-8.05
2023-02-07T21:51:43.715Z,-8.20
2023-02-07T21:54:46.554Z,-8.21
2023-02-07T21:57:49.431Z,-8.23
2023-02-07T22:00:55.218Z,-8.26
2023-02-07T22:03:59.931Z,-8.33
2023-02-07T22:07:02.765Z,-8.45
2023-02-07T22:10:05.805Z,-8.42
2023-02-07T22:13:12.970Z,-8.44
2023-02-07T22:16:17.397Z,-8.47
2023-02-07T22:19:21.028Z,-8.53
2023-02-07T22:22:23.875Z,-8.69
2023-02-07T22:25:26.640Z,-8.82
2023-02-07T22:28:30.055Z,-8.73
2023-02-07T22:31:35.733Z,-8.72
2023-02-07T22:34:41.070Z,-8.68
2023-02-07T22:37:43.810Z,-8.82
2023-02-07T22:40:46.749Z,-8.84
2023-02-07T22:43:49.672Z,-8.84
2023-02-07T22:46:52.528Z,-8.82
2023-02-07T22:49:55.298Z,-8.83
2023-02-07T22:52:58.540Z,-8.83
2023-02-07T22:56:02.044Z,-8.82
2023-02-07T22:59:05.749Z,-8.84
2023-02-07T23:02:08.821Z,-8.96
2023-02-07T23:05:12.224Z,-9.16
2023-02-07T23:08:14.962Z,-9.16
2023-02-07T23:11:19.894Z,-9.08
2023-02-07T23:14:22.747Z,-9.08
2023-02-07T23:17:26.479Z,-9.06
2023-02-07T23:20:29.923Z,-9.04
2023-02-07T23:23:32.747Z,-9.17
2023-02-07T23:26:35.614Z,-9.24
2023-02-07T23:29:40.413Z,-9.34
2023-02-07T23:32:43.316Z,-9.43
2023-02-07T23:35:46.026Z,-9.44
2023-02-07T23:38:49.450Z,-9.47
2023-02-07T23:41:52.206Z,-9.69
2023-02-07T23:44:54.961Z,-9.48
2023-02-07T23:47:58.527Z,-9.44
2023-02-07T23:51:03.743Z,-9.46
2023-02-07T23:54:06.454Z,-9.49
2023-02-07T23:57:09.189Z,-9.49
